sensor_id;sensor_type;location;lat;lon;timestamp;temperature;humidity
69335;SHT31;56477;52.742;15.242;2023-03-22T00:01:35;8.46;96.77
69335;SHT31;56477;52.742;15.242;2023-03-22T00:04:01;8.46;96.94
69335;SHT31;56477;52.742;15.242;2023-03-22T00:06:27;8.47;97.06
69335;SHT31;56477;52.742;15.242;2023-03-22T00:08:53;8.47;97.29
69335;SHT31;56477;52.742;15.242;2023-03-22T00:11:21;8.47;97.40
69335;SHT31;56477;52.742;15.242;2023-03-22T00:13:48;8.46;97.53
69335;SHT31;56477;52.742;15.242;2023-03-22T00:16:17;8.43;97.77
69335;SHT31;56477;52.742;15.242;2023-03-22T00:18:43;8.43;97.93
69335;SHT31;56477;52.742;15.242;2023-03-22T00:21:11;8.42;98.14
69335;SHT31;56477;52.742;15.242;2023-03-22T00:23:38;8.43;98.24
69335;SHT31;56477;52.742;15.242;2023-03-22T00:26:04;8.49;98.12
69335;SHT31;56477;52.742;15.242;2023-03-22T00:28:30;8.47;98.19
69335;SHT31;56477;52.742;15.242;2023-03-22T00:30:58;8.50;98.28
69335;SHT31;56477;52.742;15.242;2023-03-22T00:33:24;8.51;98.21
69335;SHT31;56477;52.742;15.242;2023-03-22T00:35:52;8.49;98.37
69335;SHT31;56477;52.742;15.242;2023-03-22T00:38:20;8.44;98.46
69335;SHT31;56477;52.742;15.242;2023-03-22T00:40:46;8.47;98.52
69335;SHT31;56477;52.742;15.242;2023-03-22T00:43:13;8.47;98.69
69335;SHT31;56477;52.742;15.242;2023-03-22T00:45:39;8.47;98.78
69335;SHT31;56477;52.742;15.242;2023-03-22T00:48:09;8.49;98.65
69335;SHT31;56477;52.742;15.242;2023-03-22T00:50:37;8.49;98.78
69335;SHT31;56477;52.742;15.242;2023-03-22T00:53:04;8.44;98.83
69335;SHT31;56477;52.742;15.242;2023-03-22T00:55:30;8.47;98.93
69335;SHT31;56477;52.742;15.242;2023-03-22T00:57:57;8.51;98.94
69335;SHT31;56477;52.742;15.242;2023-03-22T01:00:23;8.53;99.22
69335;SHT31;56477;52.742;15.242;2023-03-22T01:02:49;8.50;99.29
69335;SHT31;56477;52.742;15.242;2023-03-22T01:05:19;8.53;99.29
69335;SHT31;56477;52.742;15.242;2023-03-22T01:07:47;8.53;99.38
69335;SHT31;56477;52.742;15.242;2023-03-22T01:10:17;8.50;99.49
69335;SHT31;56477;52.742;15.242;2023-03-22T01:12:43;8.53;99.56
69335;SHT31;56477;52.742;15.242;2023-03-22T01:15:09;8.54;99.39
69335;SHT31;56477;52.742;15.242;2023-03-22T01:17:35;8.54;99.62
69335;SHT31;56477;52.742;15.242;2023-03-22T01:20:01;8.56;99.74
69335;SHT31;56477;52.742;15.242;2023-03-22T01:22:28;8.54;99.79
69335;SHT31;56477;52.742;15.242;2023-03-22T01:24:55;8.57;99.80
69335;SHT31;56477;52.742;15.242;2023-03-22T01:27:20;8.56;99.72
69335;SHT31;56477;52.742;15.242;2023-03-22T01:29:46;8.53;99.79
69335;SHT31;56477;52.742;15.242;2023-03-22T01:32:12;8.56;99.82
69335;SHT31;56477;52.742;15.242;2023-03-22T01:34:38;8.57;99.81
69335;SHT31;56477;52.742;15.242;2023-03-22T01:37:04;8.56;99.87
69335;SHT31;56477;52.742;15.242;2023-03-22T01:39:30;8.57;99.85
69335;SHT31;56477;52.742;15.242;2023-03-22T01:41:56;8.57;99.90
69335;SHT31;56477;52.742;15.242;2023-03-22T01:44:23;8.56;99.99
69335;SHT31;56477;52.742;15.242;2023-03-22T01:46:50;8.54;99.99
69335;SHT31;56477;52.742;15.242;2023-03-22T01:49:26;8.54;99.99
69335;SHT31;56477;52.742;15.242;2023-03-22T01:51:55;8.59;99.99
69335;SHT31;56477;52.742;15.242;2023-03-22T01:56:58;8.60;99.99
69335;SHT31;56477;52.742;15.242;2023-03-22T01:59:24;8.60;99.99
69335;SHT31;56477;52.742;15.242;2023-03-22T02:01:51;8.61;99.99
69335;SHT31;56477;52.742;15.242;2023-03-22T02:04:19;8.61;99.99
69335;SHT31;56477;52.742;15.242;2023-03-22T02:06:51;8.59;99.99
69335;SHT31;56477;52.742;15.242;2023-03-22T02:09:19;8.61;99.99
69335;SHT31;56477;52.742;15.242;2023-03-22T02:35:08;8.59;99.99
69335;SHT31;56477;52.742;15.242;2023-03-22T02:39:34;8.67;99.99
69335;SHT31;56477;52.742;15.242;2023-03-22T02:45:24;8.67;99.99
69335;SHT31;56477;52.742;15.242;2023-03-22T02:48:16;8.67;99.99
69335;SHT31;56477;52.742;15.242;2023-03-22T02:51:03;8.68;99.99
69335;SHT31;56477;52.742;15.242;2023-03-22T02:53:42;8.67;99.99
69335;SHT31;56477;52.742;15.242;2023-03-22T02:56:10;8.67;99.99
69335;SHT31;56477;52.742;15.242;2023-03-22T02:58:53;8.64;99.99
69335;SHT31;56477;52.742;15.242;2023-03-22T03:01:26;8.63;99.99
69335;SHT31;56477;52.742;15.242;2023-03-22T03:03:56;8.63;99.99
69335;SHT31;56477;52.742;15.242;2023-03-22T03:06:24;8.63;99.99
69335;SHT31;56477;52.742;15.242;2023-03-22T03:08:54;8.61;99.99
69335;SHT31;56477;52.742;15.242;2023-03-22T03:11:23;8.64;99.99
69335;SHT31;56477;52.742;15.242;2023-03-22T03:13:49;8.60;99.99
69335;SHT31;56477;52.742;15.242;2023-03-22T03:16:19;8.63;99.99
69335;SHT31;56477;52.742;15.242;2023-03-22T03:18:50;8.65;99.99
69335;SHT31;56477;52.742;15.242;2023-03-22T03:24:26;8.68;99.99
69335;SHT31;56477;52.742;15.242;2023-03-22T03:26:59;8.65;99.99
69335;SHT31;56477;52.742;15.242;2023-03-22T03:30:08;8.63;99.99
69335;SHT31;56477;52.742;15.242;2023-03-22T03:32:46;8.68;99.99
69335;SHT31;56477;52.742;15.242;2023-03-22T03:35:45;8.65;99.99
69335;SHT31;56477;52.742;15.242;2023-03-22T03:38:18;8.65;99.99
69335;SHT31;56477;52.742;15.242;2023-03-22T03:40:49;8.68;99.99
69335;SHT31;56477;52.742;15.242;2023-03-22T03:43:16;8.68;99.99
69335;SHT31;56477;52.742;15.242;2023-03-22T03:45:44;8.70;99.99
69335;SHT31;56477;52.742;15.242;2023-03-22T03:48:16;8.68;99.99
69335;SHT31;56477;52.742;15.242;2023-03-22T03:50:44;8.70;99.99
69335;SHT31;56477;52.742;15.242;2023-03-22T03:53:10;8.67;99.99
69335;SHT31;56477;52.742;15.242;2023-03-22T03:55:36;8.70;99.99
69335;SHT31;56477;52.742;15.242;2023-03-22T03:58:02;8.70;99.99
69335;SHT31;56477;52.742;15.242;2023-03-22T04:00:28;8.65;99.99
69335;SHT31;56477;52.742;15.242;2023-03-22T04:02:54;8.64;99.99
69335;SHT31;56477;52.742;15.242;2023-03-22T04:05:20;8.65;99.99
69335;SHT31;56477;52.742;15.242;2023-03-22T04:07:46;8.65;99.99
69335;SHT31;56477;52.742;15.242;2023-03-22T04:10:12;8.64;99.99
69335;SHT31;56477;52.742;15.242;2023-03-22T04:12:38;8.64;99.99
69335;SHT31;56477;52.742;15.242;2023-03-22T04:15:04;8.63;99.99
69335;SHT31;56477;52.742;15.242;2023-03-22T04:17:30;8.61;99.99
69335;SHT31;56477;52.742;15.242;2023-03-22T04:19:57;8.61;99.99
69335;SHT31;56477;52.742;15.242;2023-03-22T04:22:23;8.60;99.99
69335;SHT31;56477;52.742;15.242;2023-03-22T04:24:50;8.57;99.99
69335;SHT31;56477;52.742;15.242;2023-03-22T04:27:16;8.59;99.99
69335;SHT31;56477;52.742;15.242;2023-03-22T04:29:43;8.59;99.99
69335;SHT31;56477;52.742;15.242;2023-03-22T04:32:18;8.57;99.99
69335;SHT31;56477;52.742;15.242;2023-03-22T04:34:44;8.59;99.99
69335;SHT31;56477;52.742;15.242;2023-03-22T04:37:11;8.57;99.99
69335;SHT31;56477;52.742;15.242;2023-03-22T04:39:38;8.56;99.99
69335;SHT31;56477;52.742;15.242;2023-03-22T04:42:03;8.59;99.99
69335;SHT31;56477;52.742;15.242;2023-03-22T04:44:30;8.61;99.99
69335;SHT31;56477;52.742;15.242;2023-03-22T04:46:55;8.60;99.99
69335;SHT31;56477;52.742;15.242;2023-03-22T04:49:22;8.56;99.99
69335;SHT31;56477;52.742;15.242;2023-03-22T04:51:48;8.56;99.99
69335;SHT31;56477;52.742;15.242;2023-03-22T04:54:14;8.53;99.99
69335;SHT31;56477;52.742;15.242;2023-03-22T04:56:40;8.53;99.99
69335;SHT31;56477;52.742;15.242;2023-03-22T04:59:06;8.56;99.99
69335;SHT31;56477;52.742;15.242;2023-03-22T05:01:31;8.57;99.99
69335;SHT31;56477;52.742;15.242;2023-03-22T05:03:59;8.59;99.99
69335;SHT31;56477;52.742;15.242;2023-03-22T05:06:25;8.59;99.99
69335;SHT31;56477;52.742;15.242;2023-03-22T05:08:52;8.61;99.99
69335;SHT31;56477;52.742;15.242;2023-03-22T05:11:17;8.64;99.99
69335;SHT31;56477;52.742;15.242;2023-03-22T05:13:48;8.67;99.99
69335;SHT31;56477;52.742;15.242;2023-03-22T05:16:14;8.68;99.99
69335;SHT31;56477;52.742;15.242;2023-03-22T05:18:40;8.71;99.99
69335;SHT31;56477;52.742;15.242;2023-03-22T05:21:16;8.74;99.99
69335;SHT31;56477;52.742;15.242;2023-03-22T05:23:43;8.77;99.99
69335;SHT31;56477;52.742;15.242;2023-03-22T05:26:10;8.75;99.99
69335;SHT31;56477;52.742;15.242;2023-03-22T05:28:41;8.74;99.99
69335;SHT31;56477;52.742;15.242;2023-03-22T05:31:08;8.74;99.99
69335;SHT31;56477;52.742;15.242;2023-03-22T05:33:35;8.80;99.99
69335;SHT31;56477;52.742;15.242;2023-03-22T05:36:01;8.81;99.99
69335;SHT31;56477;52.742;15.242;2023-03-22T05:38:27;8.82;99.99
69335;SHT31;56477;52.742;15.242;2023-03-22T05:40:53;8.82;99.99
69335;SHT31;56477;52.742;15.242;2023-03-22T05:43:19;8.81;99.99
69335;SHT31;56477;52.742;15.242;2023-03-22T05:45:45;8.84;99.99
69335;SHT31;56477;52.742;15.242;2023-03-22T05:48:12;8.85;99.99
69335;SHT31;56477;52.742;15.242;2023-03-22T05:50:38;8.81;99.99
69335;SHT31;56477;52.742;15.242;2023-03-22T05:53:04;8.84;99.99
69335;SHT31;56477;52.742;15.242;2023-03-22T05:55:31;8.89;99.99
69335;SHT31;56477;52.742;15.242;2023-03-22T05:57:58;8.89;99.99
69335;SHT31;56477;52.742;15.242;2023-03-22T06:00:24;8.88;99.99
69335;SHT31;56477;52.742;15.242;2023-03-22T06:02:50;8.88;99.99
69335;SHT31;56477;52.742;15.242;2023-03-22T06:05:21;8.91;99.99
69335;SHT31;56477;52.742;15.242;2023-03-22T06:07:47;8.91;99.99
69335;SHT31;56477;52.742;15.242;2023-03-22T06:10:14;8.87;99.99
69335;SHT31;56477;52.742;15.242;2023-03-22T06:12:40;8.88;99.99
69335;SHT31;56477;52.742;15.242;2023-03-22T06:15:07;8.94;99.99
69335;SHT31;56477;52.742;15.242;2023-03-22T06:17:33;8.97;99.99
69335;SHT31;56477;52.742;15.242;2023-03-22T06:19:59;8.95;99.98
69335;SHT31;56477;52.742;15.242;2023-03-22T06:22:25;8.95;99.99
69335;SHT31;56477;52.742;15.242;2023-03-22T06:24:51;8.94;99.87
69335;SHT31;56477;52.742;15.242;2023-03-22T06:27:17;8.88;99.94
69335;SHT31;56477;52.742;15.242;2023-03-22T06:29:43;8.95;99.99
69335;SHT31;56477;52.742;15.242;2023-03-22T06:32:14;9.00;99.99
69335;SHT31;56477;52.742;15.242;2023-03-22T06:34:40;9.05;99.96
69335;SHT31;56477;52.742;15.242;2023-03-22T06:37:06;9.09;99.94
69335;SHT31;56477;52.742;15.242;2023-03-22T06:39:32;9.05;99.75
69335;SHT31;56477;52.742;15.242;2023-03-22T06:41:57;9.09;99.79
69335;SHT31;56477;52.742;15.242;2023-03-22T06:44:23;9.12;99.70
69335;SHT31;56477;52.742;15.242;2023-03-22T06:46:49;9.09;99.73
69335;SHT31;56477;52.742;15.242;2023-03-22T06:49:16;9.08;99.66
69335;SHT31;56477;52.742;15.242;2023-03-22T06:51:43;9.05;99.68
69335;SHT31;56477;52.742;15.242;2023-03-22T06:54:09;9.01;99.69
69335;SHT31;56477;52.742;15.242;2023-03-22T06:56:37;9.01;99.73
69335;SHT31;56477;52.742;15.242;2023-03-22T06:59:03;8.98;99.57
69335;SHT31;56477;52.742;15.242;2023-03-22T07:01:33;9.07;99.82
69335;SHT31;56477;52.742;15.242;2023-03-22T07:04:00;9.11;99.81
69335;SHT31;56477;52.742;15.242;2023-03-22T07:06:27;9.18;99.65
69335;SHT31;56477;52.742;15.242;2023-03-22T07:08:53;9.22;99.58
69335;SHT31;56477;52.742;15.242;2023-03-22T07:11:19;9.29;99.43
69335;SHT31;56477;52.742;15.242;2023-03-22T07:13:45;9.21;98.91
69335;SHT31;56477;52.742;15.242;2023-03-22T07:16:11;9.25;98.92
69335;SHT31;56477;52.742;15.242;2023-03-22T07:18:37;9.11;98.78
69335;SHT31;56477;52.742;15.242;2023-03-22T07:21:02;9.19;98.93
69335;SHT31;56477;52.742;15.242;2023-03-22T07:23:29;9.25;99.19
69335;SHT31;56477;52.742;15.242;2023-03-22T07:25:55;9.16;98.81
69335;SHT31;56477;52.742;15.242;2023-03-22T07:28:21;9.16;98.88
69335;SHT31;56477;52.742;15.242;2023-03-22T07:30:47;9.16;98.50
69335;SHT31;56477;52.742;15.242;2023-03-22T07:33:13;9.30;98.89
69335;SHT31;56477;52.742;15.242;2023-03-22T07:35:39;9.39;98.55
69335;SHT31;56477;52.742;15.242;2023-03-22T07:38:05;9.44;98.24
69335;SHT31;56477;52.742;15.242;2023-03-22T07:40:31;9.46;97.67
69335;SHT31;56477;52.742;15.242;2023-03-22T07:42:57;9.47;97.72
69335;SHT31;56477;52.742;15.242;2023-03-22T07:45:26;9.60;97.20
69335;SHT31;56477;52.742;15.242;2023-03-22T07:47:52;9.77;96.95
69335;SHT31;56477;52.742;15.242;2023-03-22T07:50:18;9.91;97.00
69335;SHT31;56477;52.742;15.242;2023-03-22T07:52:44;10.00;94.90
69335;SHT31;56477;52.742;15.242;2023-03-22T07:55:12;10.15;94.13
69335;SHT31;56477;52.742;15.242;2023-03-22T07:57:38;10.27;93.36
69335;SHT31;56477;52.742;15.242;2023-03-22T08:00:07;10.34;92.66
69335;SHT31;56477;52.742;15.242;2023-03-22T08:02:37;10.35;92.28
69335;SHT31;56477;52.742;15.242;2023-03-22T08:05:04;10.41;91.60
69335;SHT31;56477;52.742;15.242;2023-03-22T08:07:30;10.56;91.76
69335;SHT31;56477;52.742;15.242;2023-03-22T08:09:56;10.67;91.99
69335;SHT31;56477;52.742;15.242;2023-03-22T08:12:22;10.75;90.85
69335;SHT31;56477;52.742;15.242;2023-03-22T08:14:47;10.80;90.11
69335;SHT31;56477;52.742;15.242;2023-03-22T08:17:17;10.77;90.40
69335;SHT31;56477;52.742;15.242;2023-03-22T08:19:43;10.89;89.78
69335;SHT31;56477;52.742;15.242;2023-03-22T08:22:11;10.96;89.77
69335;SHT31;56477;52.742;15.242;2023-03-22T08:24:37;11.06;89.76
69335;SHT31;56477;52.742;15.242;2023-03-22T08:27:03;11.20;89.50
69335;SHT31;56477;52.742;15.242;2023-03-22T08:29:29;11.45;88.31
69335;SHT31;56477;52.742;15.242;2023-03-22T08:31:55;11.28;88.60
69335;SHT31;56477;52.742;15.242;2023-03-22T08:34:28;11.37;87.80
69335;SHT31;56477;52.742;15.242;2023-03-22T08:36:54;11.42;87.70
69335;SHT31;56477;52.742;15.242;2023-03-22T08:39:20;11.38;87.92
69335;SHT31;56477;52.742;15.242;2023-03-22T08:41:47;11.41;87.69
69335;SHT31;56477;52.742;15.242;2023-03-22T08:44:13;11.42;87.79
69335;SHT31;56477;52.742;15.242;2023-03-22T08:46:39;11.39;87.72
69335;SHT31;56477;52.742;15.242;2023-03-22T08:49:04;11.37;87.89
69335;SHT31;56477;52.742;15.242;2023-03-22T08:51:30;11.45;88.42
69335;SHT31;56477;52.742;15.242;2023-03-22T08:53:56;11.55;87.35
69335;SHT31;56477;52.742;15.242;2023-03-22T08:56:25;11.66;87.68
69335;SHT31;56477;52.742;15.242;2023-03-22T08:58:52;11.82;87.37
69335;SHT31;56477;52.742;15.242;2023-03-22T09:01:18;11.92;86.46
69335;SHT31;56477;52.742;15.242;2023-03-22T09:03:47;11.92;86.37
69335;SHT31;56477;52.742;15.242;2023-03-22T09:06:13;11.87;87.40
69335;SHT31;56477;52.742;15.242;2023-03-22T09:08:39;11.92;87.23
69335;SHT31;56477;52.742;15.242;2023-03-22T09:11:08;12.00;86.59
69335;SHT31;56477;52.742;15.242;2023-03-22T09:13:34;12.02;86.86
69335;SHT31;56477;52.742;15.242;2023-03-22T09:16:00;12.12;86.52
69335;SHT31;56477;52.742;15.242;2023-03-22T09:18:26;12.07;86.19
69335;SHT31;56477;52.742;15.242;2023-03-22T09:20:52;12.24;86.05
69335;SHT31;56477;52.742;15.242;2023-03-22T09:23:18;12.23;85.39
69335;SHT31;56477;52.742;15.242;2023-03-22T09:25:46;12.33;84.48
69335;SHT31;56477;52.742;15.242;2023-03-22T09:28:12;12.33;84.24
69335;SHT31;56477;52.742;15.242;2023-03-22T09:30:38;12.44;84.37
69335;SHT31;56477;52.742;15.242;2023-03-22T09:33:04;12.67;84.15
69335;SHT31;56477;52.742;15.242;2023-03-22T09:35:32;12.82;84.55
69335;SHT31;56477;52.742;15.242;2023-03-22T09:37:58;12.91;83.31
69335;SHT31;56477;52.742;15.242;2023-03-22T09:40:27;12.92;83.64
69335;SHT31;56477;52.742;15.242;2023-03-22T09:42:56;12.69;84.62
69335;SHT31;56477;52.742;15.242;2023-03-22T09:45:38;12.84;83.57
69335;SHT31;56477;52.742;15.242;2023-03-22T09:48:19;12.78;84.42
69335;SHT31;56477;52.742;15.242;2023-03-22T09:50:48;12.75;84.49
69335;SHT31;56477;52.742;15.242;2023-03-22T09:53:17;12.93;84.22
69335;SHT31;56477;52.742;15.242;2023-03-22T09:56:08;13.39;83.26
69335;SHT31;56477;52.742;15.242;2023-03-22T10:06:38;13.09;82.27
69335;SHT31;56477;52.742;15.242;2023-03-22T10:11:59;13.13;82.49
69335;SHT31;56477;52.742;15.242;2023-03-22T10:14:41;12.95;82.27
69335;SHT31;56477;52.742;15.242;2023-03-22T10:17:22;13.09;82.38
69335;SHT31;56477;52.742;15.242;2023-03-22T10:22:38;12.75;81.48
69335;SHT31;56477;52.742;15.242;2023-03-22T10:25:07;12.92;81.68
69335;SHT31;56477;52.742;15.242;2023-03-22T10:27:34;13.13;81.36
69335;SHT31;56477;52.742;15.242;2023-03-22T10:30:17;12.77;81.37
69335;SHT31;56477;52.742;15.242;2023-03-22T10:35:15;12.99;81.34
69335;SHT31;56477;52.742;15.242;2023-03-22T10:37:44;13.08;82.38
69335;SHT31;56477;52.742;15.242;2023-03-22T10:40:17;12.78;82.47
69335;SHT31;56477;52.742;15.242;2023-03-22T10:43:22;13.19;81.00
69335;SHT31;56477;52.742;15.242;2023-03-22T10:45:41;13.09;80.88
69335;SHT31;56477;52.742;15.242;2023-03-22T10:48:19;13.02;82.35
69335;SHT31;56477;52.742;15.242;2023-03-22T10:50:48;13.40;80.21
69335;SHT31;56477;52.742;15.242;2023-03-22T10:55:46;13.60;78.73
69335;SHT31;56477;52.742;15.242;2023-03-22T10:58:15;13.56;79.03
69335;SHT31;56477;52.742;15.242;2023-03-22T11:00:46;13.46;80.20
69335;SHT31;56477;52.742;15.242;2023-03-22T11:06:13;13.67;79.78
69335;SHT31;56477;52.742;15.242;2023-03-22T11:11:22;13.60;78.55
69335;SHT31;56477;52.742;15.242;2023-03-22T11:13:58;13.64;79.28
69335;SHT31;56477;52.742;15.242;2023-03-22T11:16:24;13.49;79.16
69335;SHT31;56477;52.742;15.242;2023-03-22T11:18:50;13.32;78.61
69335;SHT31;56477;52.742;15.242;2023-03-22T11:21:17;13.22;79.70
69335;SHT31;56477;52.742;15.242;2023-03-22T11:23:53;13.05;80.12
69335;SHT31;56477;52.742;15.242;2023-03-22T11:26:32;13.06;80.59
69335;SHT31;56477;52.742;15.242;2023-03-22T11:29:15;13.10;81.30
69335;SHT31;56477;52.742;15.242;2023-03-22T11:31:57;13.01;80.78
69335;SHT31;56477;52.742;15.242;2023-03-22T11:34:28;13.05;80.79
69335;SHT31;56477;52.742;15.242;2023-03-22T11:36:54;13.13;80.07
69335;SHT31;56477;52.742;15.242;2023-03-22T11:39:25;13.33;79.43
69335;SHT31;56477;52.742;15.242;2023-03-22T11:42:01;13.38;79.28
69335;SHT31;56477;52.742;15.242;2023-03-22T11:44:33;13.42;79.38
69335;SHT31;56477;52.742;15.242;2023-03-22T11:47:01;13.24;79.76
69335;SHT31;56477;52.742;15.242;2023-03-22T11:49:39;13.51;79.69
69335;SHT31;56477;52.742;15.242;2023-03-22T11:52:17;13.75;78.46
69335;SHT31;56477;52.742;15.242;2023-03-22T11:54:45;14.30;77.32
69335;SHT31;56477;52.742;15.242;2023-03-22T11:57:32;14.24;76.11
69335;SHT31;56477;52.742;15.242;2023-03-22T12:00:07;14.46;76.03
69335;SHT31;56477;52.742;15.242;2023-03-22T12:02:44;14.40;75.49
69335;SHT31;56477;52.742;15.242;2023-03-22T12:05:26;14.43;75.70
69335;SHT31;56477;52.742;15.242;2023-03-22T12:08:35;14.73;75.35
69335;SHT31;56477;52.742;15.242;2023-03-22T12:11:05;14.86;74.61
69335;SHT31;56477;52.742;15.242;2023-03-22T12:13:48;14.62;75.17
69335;SHT31;56477;52.742;15.242;2023-03-22T12:16:20;14.39;75.47
69335;SHT31;56477;52.742;15.242;2023-03-22T12:21:28;15.07;73.68
69335;SHT31;56477;52.742;15.242;2023-03-22T12:23:58;15.35;72.92
69335;SHT31;56477;52.742;15.242;2023-03-22T12:26:27;15.10;73.24
69335;SHT31;56477;52.742;15.242;2023-03-22T12:29:14;14.73;73.13
69335;SHT31;56477;52.742;15.242;2023-03-22T12:31:45;14.60;72.83
69335;SHT31;56477;52.742;15.242;2023-03-22T12:34:17;14.57;73.40
69335;SHT31;56477;52.742;15.242;2023-03-22T12:36:53;14.47;73.23
69335;SHT31;56477;52.742;15.242;2023-03-22T12:39:34;14.45;73.64
69335;SHT31;56477;52.742;15.242;2023-03-22T12:42:12;14.43;73.55
69335;SHT31;56477;52.742;15.242;2023-03-22T12:44:42;14.49;73.16
69335;SHT31;56477;52.742;15.242;2023-03-22T12:47:31;14.60;73.65
69335;SHT31;56477;52.742;15.242;2023-03-22T12:50:12;14.80;72.71
69335;SHT31;56477;52.742;15.242;2023-03-22T12:52:48;15.00;72.63
69335;SHT31;56477;52.742;15.242;2023-03-22T12:55:24;14.88;72.42
69335;SHT31;56477;52.742;15.242;2023-03-22T12:57:52;14.96;71.97
69335;SHT31;56477;52.742;15.242;2023-03-22T13:00:21;14.87;72.38
69335;SHT31;56477;52.742;15.242;2023-03-22T13:03:22;15.10;72.22
69335;SHT31;56477;52.742;15.242;2023-03-22T13:05:58;15.31;70.30
69335;SHT31;56477;52.742;15.242;2023-03-22T13:08:25;15.39;69.04
69335;SHT31;56477;52.742;15.242;2023-03-22T13:11:21;15.30;69.92
69335;SHT31;56477;52.742;15.242;2023-03-22T13:13:48;14.93;70.23
69335;SHT31;56477;52.742;15.242;2023-03-22T13:16:16;15.44;68.81
69335;SHT31;56477;52.742;15.242;2023-03-22T13:21:17;16.27;66.99
69335;SHT31;56477;52.742;15.242;2023-03-22T13:26:42;15.59;68.71
69335;SHT31;56477;52.742;15.242;2023-03-22T13:31:53;15.34;68.41
69335;SHT31;56477;52.742;15.242;2023-03-22T13:34:45;15.21;68.72
69335;SHT31;56477;52.742;15.242;2023-03-22T13:39:57;15.42;68.31
69335;SHT31;56477;52.742;15.242;2023-03-22T13:42:38;15.35;68.29
69335;SHT31;56477;52.742;15.242;2023-03-22T13:45:08;15.20;69.10
69335;SHT31;56477;52.742;15.242;2023-03-22T13:48:28;15.34;68.93
69335;SHT31;56477;52.742;15.242;2023-03-22T13:50:56;15.30;68.00
69335;SHT31;56477;52.742;15.242;2023-03-22T13:53:28;15.49;67.47
69335;SHT31;56477;52.742;15.242;2023-03-22T13:58:35;16.04;66.25
69335;SHT31;56477;52.742;15.242;2023-03-22T14:01:04;15.93;64.97
69335;SHT31;56477;52.742;15.242;2023-03-22T14:03:34;15.99;64.65
69335;SHT31;56477;52.742;15.242;2023-03-22T14:06:23;16.27;62.16
69335;SHT31;56477;52.742;15.242;2023-03-22T14:08:54;16.61;60.29
69335;SHT31;56477;52.742;15.242;2023-03-22T14:11:35;16.06;62.28
69335;SHT31;56477;52.742;15.242;2023-03-22T14:14:18;16.02;63.48
69335;SHT31;56477;52.742;15.242;2023-03-22T14:16:52;16.20;62.14
69335;SHT31;56477;52.742;15.242;2023-03-22T14:19:24;16.09;62.69
69335;SHT31;56477;52.742;15.242;2023-03-22T14:22:00;16.02;61.94
69335;SHT31;56477;52.742;15.242;2023-03-22T14:24:29;16.09;62.36
69335;SHT31;56477;52.742;15.242;2023-03-22T14:26:58;16.73;61.13
69335;SHT31;56477;52.742;15.242;2023-03-22T14:29:26;16.95;60.11
69335;SHT31;56477;52.742;15.242;2023-03-22T14:32:01;17.78;58.95
69335;SHT31;56477;52.742;15.242;2023-03-22T14:34:32;17.41;57.59
69335;SHT31;56477;52.742;15.242;2023-03-22T14:37:04;17.02;59.03
69335;SHT31;56477;52.742;15.242;2023-03-22T14:39:37;16.73;60.55
69335;SHT31;56477;52.742;15.242;2023-03-22T14:42:26;16.98;59.07
69335;SHT31;56477;52.742;15.242;2023-03-22T14:44:58;17.66;57.20
69335;SHT31;56477;52.742;15.242;2023-03-22T14:47:29;17.39;57.65
69335;SHT31;56477;52.742;15.242;2023-03-22T14:50:03;17.54;57.46
69335;SHT31;56477;52.742;15.242;2023-03-22T14:52:32;17.36;58.85
69335;SHT31;56477;52.742;15.242;2023-03-22T14:55:00;17.57;57.90
69335;SHT31;56477;52.742;15.242;2023-03-22T14:57:36;18.19;56.53
69335;SHT31;56477;52.742;15.242;2023-03-22T15:00:10;17.33;58.79
69335;SHT31;56477;52.742;15.242;2023-03-22T15:02:43;17.16;59.20
69335;SHT31;56477;52.742;15.242;2023-03-22T15:05:20;16.92;59.86
69335;SHT31;56477;52.742;15.242;2023-03-22T15:10:42;16.51;60.81
69335;SHT31;56477;52.742;15.242;2023-03-22T15:13:10;15.85;61.66
69335;SHT31;56477;52.742;15.242;2023-03-22T15:15:38;16.16;60.98
69335;SHT31;56477;52.742;15.242;2023-03-22T15:18:07;16.54;60.68
69335;SHT31;56477;52.742;15.242;2023-03-22T15:20:36;16.83;59.54
69335;SHT31;56477;52.742;15.242;2023-03-22T15:23:15;16.95;59.15
69335;SHT31;56477;52.742;15.242;2023-03-22T15:25:45;17.29;58.75
69335;SHT31;56477;52.742;15.242;2023-03-22T15:28:15;16.81;58.94
69335;SHT31;56477;52.742;15.242;2023-03-22T15:30:48;16.69;59.51
69335;SHT31;56477;52.742;15.242;2023-03-22T15:33:24;16.40;60.38
69335;SHT31;56477;52.742;15.242;2023-03-22T15:35:54;16.27;60.84
69335;SHT31;56477;52.742;15.242;2023-03-22T15:38:28;16.35;60.62
69335;SHT31;56477;52.742;15.242;2023-03-22T15:40:56;16.06;61.22
69335;SHT31;56477;52.742;15.242;2023-03-22T15:43:31;15.79;61.97
69335;SHT31;56477;52.742;15.242;2023-03-22T15:48:41;15.69;63.01
69335;SHT31;56477;52.742;15.242;2023-03-22T15:51:12;15.55;63.09
69335;SHT31;56477;52.742;15.242;2023-03-22T15:53:39;15.46;63.59
69335;SHT31;56477;52.742;15.242;2023-03-22T15:56:14;15.39;64.12
69335;SHT31;56477;52.742;15.242;2023-03-22T15:58:55;15.35;64.41
69335;SHT31;56477;52.742;15.242;2023-03-22T16:01:21;15.38;64.24
69335;SHT31;56477;52.742;15.242;2023-03-22T16:03:56;15.31;64.45
69335;SHT31;56477;52.742;15.242;2023-03-22T16:06:23;15.25;64.79
69335;SHT31;56477;52.742;15.242;2023-03-22T16:08:50;15.27;65.11
69335;SHT31;56477;52.742;15.242;2023-03-22T16:11:18;15.23;65.22
69335;SHT31;56477;52.742;15.242;2023-03-22T16:13:45;15.17;64.98
69335;SHT31;56477;52.742;15.242;2023-03-22T16:16:16;15.18;65.07
69335;SHT31;56477;52.742;15.242;2023-03-22T16:18:43;15.12;64.76
69335;SHT31;56477;52.742;15.242;2023-03-22T16:21:13;15.08;64.96
69335;SHT31;56477;52.742;15.242;2023-03-22T16:23:41;15.07;64.91
69335;SHT31;56477;52.742;15.242;2023-03-22T16:26:15;14.98;65.22
69335;SHT31;56477;52.742;15.242;2023-03-22T16:28:43;14.93;65.43
69335;SHT31;56477;52.742;15.242;2023-03-22T16:31:17;14.96;65.23
69335;SHT31;56477;52.742;15.242;2023-03-22T16:33:44;14.88;65.62
69335;SHT31;56477;52.742;15.242;2023-03-22T16:36:13;14.83;65.81
69335;SHT31;56477;52.742;15.242;2023-03-22T16:38:39;14.84;65.75
69335;SHT31;56477;52.742;15.242;2023-03-22T16:41:07;14.83;65.85
69335;SHT31;56477;52.742;15.242;2023-03-22T16:43:33;14.77;66.29
69335;SHT31;56477;52.742;15.242;2023-03-22T16:45:59;14.75;66.05
69335;SHT31;56477;52.742;15.242;2023-03-22T16:48:26;14.73;66.04
69335;SHT31;56477;52.742;15.242;2023-03-22T16:50:53;14.69;66.42
69335;SHT31;56477;52.742;15.242;2023-03-22T16:53:19;14.73;66.11
69335;SHT31;56477;52.742;15.242;2023-03-22T16:55:45;14.72;65.85
69335;SHT31;56477;52.742;15.242;2023-03-22T16:58:12;14.72;65.84
69335;SHT31;56477;52.742;15.242;2023-03-22T17:00:39;14.65;66.33